Time;durP1;ratioP1;P1;durP2;ratioP2;P2;SDS_P1;SDS_P2;PMS_P1;PMS_P2;Temp;Humidity;BMP_temperature;BMP_pressure;BME280_temperature;BME280_humidity;BME280_pressure;Samples;Min_cycle;Max_cycle;Signal;HPM_P1;HPM_P2
2021/01/12 00:01:42;;;;;;;22.73;10.68;;;;;;;-0.30;80.77;97248.00;4863543;29;19925;-81
2021/01/12 00:04:08;;;;;;;19.98;10.20;;;;;;;-0.18;80.80;97246.63;4891622;29;20044;-81
2021/01/12 00:06:33;;;;;;;23.27;10.20;;;;;;;-0.17;80.34;97247.41;4892345;29;20055;-82
2021/01/12 00:08:59;;;;;;;20.25;10.65;;;;;;;-0.23;81.11;97249.69;4892020;29;20511;-82
2021/01/12 00:11:25;;;;;;;21.30;11.15;;;;;;;-0.17;80.10;97253.34;4891559;29;20032;-81
2021/01/12 00:13:51;;;;;;;22.17;10.88;;;;;;;-0.17;80.39;97238.00;4892722;29;20068;-82
2021/01/12 00:16:20;;;;;;;22.17;11.77;;;;;;;-0.17;80.47;97226.94;4887282;29;20112;-81
2021/01/12 00:18:47;;;;;;;22.65;10.30;;;;;;;-0.02;79.88;97237.97;4903681;29;20040;-81
2021/01/12 00:21:13;;;;;;;19.73;10.13;;;;;;;-0.07;79.77;97220.63;4891778;29;20115;-81
2021/01/12 00:23:39;;;;;;;20.88;10.52;;;;;;;-0.12;80.32;97229.75;4893179;29;20028;-81
2021/01/12 00:26:06;;;;;;;20.77;10.73;;;;;;;-0.21;80.50;97221.38;4908861;29;20080;-82
2021/01/12 00:28:35;;;;;;;20.23;10.02;;;;;;;-0.21;80.79;97216.25;4890981;29;20120;-81
2021/01/12 00:31:04;;;;;;;18.13;9.38;;;;;;;-0.16;80.33;97215.75;4892091;29;20067;-81
2021/01/12 00:33:33;;;;;;;25.13;10.88;;;;;;;-0.31;80.99;97219.09;4892499;29;20059;-81
2021/01/12 00:36:08;;;;;;;20.42;10.02;;;;;;;-0.23;80.81;97220.75;4891911;29;20265;-82
2021/01/12 00:38:34;;;;;;;20.05;10.48;;;;;;;-0.09;80.54;97214.06;4886311;29;20037;-82
2021/01/12 00:41:06;;;;;;;20.10;9.60;;;;;;;-0.14;80.32;97224.03;4891847;29;20492;-81
2021/01/12 00:43:32;;;;;;;18.85;9.65;;;;;;;-0.15;81.28;97212.22;4893553;29;20500;-82
2021/01/12 00:45:58;;;;;;;23.17;10.38;;;;;;;-0.09;81.16;97208.94;4876794;29;20048;-81
2021/01/12 00:48:23;;;;;;;18.98;9.98;;;;;;;0.05;79.97;97215.03;4876668;29;20048;-82
2021/01/12 00:50:49;;;;;;;20.63;11.05;;;;;;;-0.04;80.87;97216.91;4875824;29;20083;-81
2021/01/12 00:53:14;;;;;;;21.48;10.32;;;;;;;0.00;80.47;97228.38;4892706;29;20035;-81
2021/01/12 00:55:41;;;;;;;19.15;10.13;;;;;;;-0.11;81.18;97231.38;4889928;29;20659;-81
2021/01/12 00:58:06;;;;;;;22.08;10.38;;;;;;;0.07;80.18;97236.94;4906501;29;20039;-81
2021/01/12 01:00:31;;;;;;;18.77;9.32;;;;;;;-0.03;80.85;97232.09;4891577;29;20036;-82
2021/01/12 01:02:57;;;;;;;19.60;9.93;;;;;;;0.04;80.84;97237.28;4874675;29;20059;-82
2021/01/12 01:05:23;;;;;;;18.33;9.52;;;;;;;-0.11;80.98;97232.16;4892644;29;20033;-82
2021/01/12 01:07:49;;;;;;;21.23;9.93;;;;;;;0.08;81.03;97225.72;4876224;29;20028;-82
2021/01/12 01:10:15;;;;;;;18.38;9.07;;;;;;;-0.03;81.04;97206.47;4891210;29;20060;-82
2021/01/12 01:12:41;;;;;;;21.27;10.20;;;;;;;0.15;80.22;97221.47;4892936;29;20048;-81
2021/01/12 01:15:07;;;;;;;18.17;9.40;;;;;;;0.12;80.74;97215.91;4872331;29;20028;-81
2021/01/12 01:17:34;;;;;;;18.27;9.55;;;;;;;0.03;80.49;97202.41;4891033;29;20479;-81
2021/01/12 01:20:00;;;;;;;21.38;10.32;;;;;;;0.07;81.32;97198.56;4891327;29;20138;-81
2021/01/12 01:22:26;;;;;;;21.63;10.90;;;;;;;-0.08;80.91;97188.31;4891323;29;20040;-81
2021/01/12 01:24:51;;;;;;;20.15;9.48;;;;;;;0.05;80.92;97182.56;4860110;29;20563;-81
2021/01/12 01:27:17;;;;;;;19.90;9.48;;;;;;;0.04;81.22;97183.53;4894997;29;20247;-82
2021/01/12 01:29:45;;;;;;;19.40;9.27;;;;;;;0.00;80.80;97184.88;4892113;29;20080;-82
2021/01/12 01:32:11;;;;;;;21.80;9.98;;;;;;;0.23;80.44;97171.19;4891218;29;20032;-82
2021/01/12 01:34:37;;;;;;;19.08;9.25;;;;;;;0.12;80.50;97178.34;4892649;29;20044;-82
2021/01/12 01:37:03;;;;;;;19.67;9.95;;;;;;;0.16;80.76;97171.09;4875936;29;20064;-82
2021/01/12 01:39:29;;;;;;;19.33;9.27;;;;;;;0.06;80.59;97170.56;4875481;29;20119;-83
2021/01/12 01:41:55;;;;;;;16.70;8.85;;;;;;;0.06;80.91;97168.78;4891699;29;20195;-82
2021/01/12 01:44:21;;;;;;;18.80;9.25;;;;;;;0.08;80.91;97168.63;4891079;29;20033;-82
2021/01/12 01:46:48;;;;;;;19.55;10.13;;;;;;;0.09;80.67;97160.75;4891660;29;20032;-82
2021/01/12 01:49:13;;;;;;;17.08;9.23;;;;;;;0.23;80.36;97159.16;4890569;29;20044;-82
2021/01/12 01:51:40;;;;;;;16.58;8.30;;;;;;;0.24;80.92;97157.38;4890728;29;20048;-82
2021/01/12 01:54:06;;;;;;;19.13;8.40;;;;;;;0.26;81.18;97151.13;4891501;29;20198;-82
2021/01/12 01:56:31;;;;;;;18.52;8.98;;;;;;;0.17;80.99;97147.06;4891056;29;20128;-82
2021/01/12 01:58:57;;;;;;;17.92;8.82;;;;;;;0.23;81.06;97150.69;4886710;29;20383;-82
2021/01/12 02:01:23;;;;;;;16.80;8.57;;;;;;;0.34;80.94;97147.66;4889847;29;20181;-79
2021/01/12 02:04:11;;;;;;;18.15;9.32;;;;;;;0.21;80.86;97144.94;4911554;23;20064;-78
2021/01/12 02:06:38;;;;;;;18.60;7.93;;;;;;;0.33;80.95;97143.53;4911093;29;20091;-81
2021/01/12 02:09:22;;;;;;;17.48;8.85;;;;;;;0.20;81.34;97145.94;4915803;29;20521;-81
2021/01/12 02:11:53;;;;;;;19.52;8.93;;;;;;;0.26;81.77;97151.13;4911718;29;20111;-79
2021/01/12 02:14:20;;;;;;;20.35;9.73;;;;;;;0.27;81.06;97132.22;4913983;29;20055;-79
2021/01/12 02:16:49;;;;;;;17.17;8.32;;;;;;;0.37;81.47;97134.50;4929476;29;20502;-80
2021/01/12 02:19:19;;;;;;;18.58;9.02;;;;;;;0.22;81.98;97131.97;4916349;29;20036;-81
2021/01/12 02:21:59;;;;;;;19.92;9.55;;;;;;;0.09;83.49;97119.81;4912510;29;20114;-80
2021/01/12 02:24:25;;;;;;;17.67;8.98;;;;;;;0.31;81.88;97117.28;4913370;29;20036;-80
2021/01/12 02:26:50;;;;;;;18.00;9.18;;;;;;;0.19;83.43;97124.66;4892641;29;20047;-79
2021/01/12 02:29:16;;;;;;;21.15;9.88;;;;;;;0.40;82.74;97111.09;4914229;29;20043;-81
2021/01/12 02:31:43;;;;;;;20.70;10.20;;;;;;;0.38;83.15;97102.81;4898830;29;20476;-81
2021/01/12 02:34:13;;;;;;;20.77;10.57;;;;;;;0.21;83.41;97102.22;4915143;29;20025;-79
2021/01/12 02:36:40;;;;;;;21.17;10.18;;;;;;;0.15;84.08;97095.25;4933671;29;20032;-79
2021/01/12 02:39:06;;;;;;;24.70;12.60;;;;;;;0.32;83.59;97098.41;4913292;29;20498;-80
2021/01/12 02:41:33;;;;;;;21.80;10.30;;;;;;;0.22;84.19;97098.66;4915893;29;20028;-79
2021/01/12 02:43:59;;;;;;;19.02;8.68;;;;;;;0.31;83.95;97082.25;4914048;29;20036;-80
2021/01/12 02:46:25;;;;;;;23.73;10.82;;;;;;;0.20;84.30;97074.22;4915468;29;20139;-79
2021/01/12 02:48:51;;;;;;;22.02;9.93;;;;;;;0.25;84.21;97061.69;4917078;29;20506;-79
2021/01/12 02:51:17;;;;;;;23.42;10.85;;;;;;;0.29;84.77;97066.28;4914943;29;20035;-80
2021/01/12 02:53:42;;;;;;;20.02;10.10;;;;;;;0.46;83.87;97055.78;4916815;29;20387;-80
2021/01/12 02:56:08;;;;;;;23.27;11.35;;;;;;;0.02;85.12;97057.50;4903669;29;20023;-79
2021/01/12 02:58:34;;;;;;;21.73;10.40;;;;;;;0.20;85.14;97048.63;4920192;29;20506;-79
2021/01/12 03:01:00;;;;;;;22.60;10.00;;;;;;;0.36;84.26;97051.75;4916293;29;20108;-80
2021/01/12 03:03:26;;;;;;;20.33;9.90;;;;;;;0.48;84.51;97051.25;4916163;29;20051;-81
2021/01/12 03:05:52;;;;;;;23.20;10.40;;;;;;;0.23;85.12;97036.25;4912223;29;20040;-81
2021/01/12 03:08:18;;;;;;;21.20;9.80;;;;;;;0.40;84.08;97044.50;4883070;29;20051;-80
2021/01/12 03:10:43;;;;;;;21.25;10.27;;;;;;;0.33;85.11;97035.97;4879943;29;20043;-79
2021/01/12 03:13:09;;;;;;;25.05;10.70;;;;;;;0.27;85.87;97034.13;4916720;29;20064;-81
2021/01/12 03:15:39;;;;;;;21.10;10.15;;;;;;;0.21;86.16;97037.41;4909345;29;20067;-81
2021/01/12 03:18:06;;;;;;;19.05;10.48;;;;;;;0.31;85.82;97028.47;4904344;29;20562;-79
2021/01/12 03:20:32;;;;;;;20.55;10.38;;;;;;;0.22;85.91;97026.97;4901063;29;20381;-81
2021/01/12 03:22:59;;;;;;;23.20;10.70;;;;;;;0.43;85.45;97030.53;4915070;29;20036;-81
2021/01/12 03:25:25;;;;;;;22.70;10.63;;;;;;;0.47;85.40;97013.84;4883659;29;20036;-81
2021/01/12 03:27:51;;;;;;;21.63;10.52;;;;;;;0.47;85.35;97024.88;4901645;29;20494;-80
2021/01/12 03:30:18;;;;;;;22.42;9.68;;;;;;;0.44;85.97;97009.06;4903438;29;20036;-80
2021/01/12 03:32:44;;;;;;;19.88;10.77;;;;;;;0.48;85.55;97000.84;4899930;29;20231;-80
2021/01/12 03:35:11;;;;;;;22.95;10.02;;;;;;;0.48;85.33;97003.41;4918757;29;20028;-79
2021/01/12 03:37:38;;;;;;;23.38;10.50;;;;;;;0.41;85.74;96984.59;4906555;29;20031;-79
2021/01/12 03:40:07;;;;;;;22.45;9.55;;;;;;;0.42;85.05;96981.06;4903433;29;20424;-81
2021/01/12 03:42:34;;;;;;;21.23;10.20;;;;;;;0.41;86.04;96984.59;4905202;29;20032;-79
2021/01/12 03:44:59;;;;;;;21.40;9.10;;;;;;;0.51;85.57;96974.84;4893702;29;20043;-81
2021/01/12 03:47:26;;;;;;;19.20;10.13;;;;;;;0.44;85.17;96974.00;4919320;29;20042;-79
2021/01/12 03:49:51;;;;;;;20.92;9.27;;;;;;;0.37;85.72;96971.38;4886982;29;20032;-80
2021/01/12 03:52:17;;;;;;;22.02;10.32;;;;;;;0.32;86.19;96957.56;4889794;29;20438;-81
2021/01/12 03:54:44;;;;;;;21.08;9.50;;;;;;;0.38;85.96;96949.13;4920479;29;20186;-82
2021/01/12 03:57:09;;;;;;;22.55;10.38;;;;;;;0.31;86.19;96951.66;4901910;29;20068;-80
2021/01/12 03:59:35;;;;;;;18.48;8.73;;;;;;;0.34;85.66;96938.47;4919232;29;20063;-83
2021/01/12 04:02:01;;;;;;;20.52;10.18;;;;;;;0.45;85.83;96955.09;4886653;29;20044;-82
2021/01/12 04:04:27;;;;;;;17.98;9.43;;;;;;;0.52;85.71;96950.81;4916984;29;20052;-81
2021/01/12 04:06:52;;;;;;;22.52;10.55;;;;;;;0.43;86.39;96946.00;4902938;29;20092;-82
2021/01/12 04:09:19;;;;;;;19.17;9.00;;;;;;;0.47;85.58;96942.91;4919363;29;20028;-82
2021/01/12 04:11:45;;;;;;;22.10;9.43;;;;;;;0.45;85.26;96934.59;4919826;29;20028;-81
2021/01/12 04:14:11;;;;;;;20.65;9.30;;;;;;;0.40;85.81;96925.91;4887485;29;20028;-80
2021/01/12 04:16:37;;;;;;;18.52;9.60;;;;;;;0.43;85.39;96921.22;4902882;29;20032;-81
2021/01/12 04:19:03;;;;;;;20.20;9.27;;;;;;;0.46;85.65;96920.81;4903784;29;20459;-83
2021/01/12 04:21:29;;;;;;;18.65;9.48;;;;;;;0.53;85.23;96919.13;4902892;29;20039;-82
2021/01/12 04:23:55;;;;;;;16.95;7.90;;;;;;;0.59;85.06;96920.13;4887389;29;20047;-82
2021/01/12 04:26:20;;;;;;;17.83;8.85;;;;;;;0.51;85.54;96912.56;4901056;29;20468;-82
2021/01/12 04:28:47;;;;;;;18.90;9.55;;;;;;;0.60;85.29;96910.66;4903417;29;20448;-80
2021/01/12 04:31:13;;;;;;;16.20;8.55;;;;;;;0.67;84.91;96906.38;4915858;29;20053;-82
2021/01/12 04:33:38;;;;;;;15.00;8.50;;;;;;;0.52;85.22;96914.97;4918942;29;20584;-82
2021/01/12 04:36:04;;;;;;;19.33;9.00;;;;;;;0.55;85.21;96906.13;4903027;29;20075;-80
2021/01/12 04:38:30;;;;;;;17.75;8.75;;;;;;;0.58;85.59;96894.69;4887073;29;20028;-80
2021/01/12 04:40:56;;;;;;;17.67;8.95;;;;;;;0.48;85.63;96893.25;4918363;29;20036;-82
2021/01/12 04:43:22;;;;;;;17.23;9.00;;;;;;;0.61;85.51;96887.41;4901230;29;20035;-83
2021/01/12 04:45:48;;;;;;;17.30;8.43;;;;;;;0.71;85.16;96908.38;4900307;29;20039;-83
2021/01/12 04:48:14;;;;;;;16.27;8.23;;;;;;;0.49;86.26;96894.84;4902756;29;20095;-82
2021/01/12 04:50:40;;;;;;;15.85;7.60;;;;;;;0.55;85.60;96888.97;4885804;29;20107;-82
2021/01/12 04:53:06;;;;;;;19.00;9.32;;;;;;;0.80;85.09;96892.84;4900695;29;20127;-84
2021/01/12 04:55:32;;;;;;;19.48;8.88;;;;;;;0.67;85.07;96870.50;4885550;29;20087;-82
2021/01/12 04:57:58;;;;;;;16.70;8.05;;;;;;;0.64;85.48;96892.19;4888285;29;20031;-80
2021/01/12 05:00:28;;;;;;;16.95;7.93;;;;;;;0.52;86.46;96879.09;4919156;29;20037;-82
2021/01/12 05:02:58;;;;;;;18.67;8.68;;;;;;;0.52;86.32;96873.97;4902024;29;20052;-81
2021/01/12 05:05:29;;;;;;;16.70;8.38;;;;;;;0.67;85.64;96855.13;4910505;29;20127;-81
2021/01/12 05:08:09;;;;;;;17.25;8.50;;;;;;;0.52;86.22;96858.59;4915101;29;20031;-81
2021/01/12 05:10:40;;;;;;;20.27;8.55;;;;;;;0.79;85.41;96863.88;4916377;29;20037;-84
2021/01/12 05:13:08;;;;;;;17.23;8.73;;;;;;;0.71;84.92;96843.53;4914942;29;20047;-81
2021/01/12 05:15:41;;;;;;;17.73;8.40;;;;;;;0.83;85.30;96859.94;4915761;29;20430;-81
2021/01/12 05:18:10;;;;;;;17.13;8.98;;;;;;;0.79;85.17;96847.69;4913317;29;20051;-80
2021/01/12 05:20:42;;;;;;;14.57;7.20;;;;;;;0.79;85.61;96853.63;4915600;29;20040;-81
2021/01/12 05:23:08;;;;;;;17.38;9.32;;;;;;;0.92;85.51;96840.84;4911848;29;20546;-84
2021/01/12 05:25:36;;;;;;;15.65;9.02;;;;;;;0.79;85.62;96835.69;4899530;29;20039;-84
2021/01/12 05:28:06;;;;;;;18.35;8.25;;;;;;;0.73;85.80;96844.13;4914263;29;20086;-82
2021/01/12 05:30:32;;;;;;;18.42;9.38;;;;;;;0.84;85.69;96823.09;4916076;29;20106;-80
2021/01/12 05:32:59;;;;;;;19.20;9.68;;;;;;;0.82;85.48;96821.69;4900820;29;20503;-81
2021/01/12 05:35:46;;;;;;;16.45;8.65;;;;;;;0.77;85.94;96817.13;4914111;29;20537;-82
2021/01/12 05:38:29;;;;;;;17.58;9.90;;;;;;;0.55;86.43;96814.69;4916694;29;20028;-82
2021/01/12 05:40:58;;;;;;;18.95;8.77;;;;;;;0.81;85.74;96804.75;4914306;29;20073;-84
2021/01/12 05:43:41;;;;;;;18.02;9.27;;;;;;;0.79;85.77;96822.06;4915247;29;20032;-84
2021/01/12 05:46:09;;;;;;;16.75;8.07;;;;;;;0.85;85.57;96811.84;4909777;29;20033;-84
2021/01/12 05:48:36;;;;;;;16.42;9.23;;;;;;;0.80;86.10;96809.06;4915865;29;20466;-85
2021/01/12 05:51:06;;;;;;;17.42;8.60;;;;;;;0.82;86.11;96803.75;4915061;29;20469;-85
2021/01/12 05:54:02;;;;;;;16.10;7.97;;;;;;;0.78;85.62;96811.03;4894271;29;20115;-85
2021/01/12 05:56:29;;;;;;;;;;;;;;;0.73;85.79;96792.88;4899019;29;20032;-84
2021/01/12 05:58:56;;;;;;;12.75;6.93;;;;;;;0.86;85.44;96800.63;4911538;29;19998;-81
2021/01/12 06:01:41;;;;;;;17.98;7.70;;;;;;;0.81;85.62;96794.50;4942771;29;20055;-86
2021/01/12 06:04:12;;;;;;;12.63;6.75;;;;;;;0.77;85.55;96793.28;4908022;29;20052;-81
2021/01/12 06:06:43;;;;;;;14.27;7.07;;;;;;;0.91;85.42;96790.59;4862431;29;20415;-85
2021/01/12 06:09:10;;;;;;;13.63;7.63;;;;;;;0.69;86.95;96781.44;4879451;29;20043;-82
2021/01/12 06:11:38;;;;;;;12.82;6.63;;;;;;;0.81;86.19;96787.59;4896181;29;20416;-81
2021/01/12 06:14:17;;;;;;;13.52;7.50;;;;;;;0.75;86.12;96775.53;4880149;29;20482;-83
2021/01/12 06:16:45;;;;;;;13.40;6.72;;;;;;;0.73;86.31;96780.06;4896051;29;20043;-84
2021/01/12 06:19:17;;;;;;;14.68;6.68;;;;;;;0.76;86.95;96778.91;4895993;29;20531;-85
2021/01/12 06:21:47;;;;;;;11.43;6.47;;;;;;;0.76;86.49;96771.22;4913255;29;20032;-85
2021/01/12 06:24:17;;;;;;;11.48;5.82;;;;;;;0.88;86.33;96780.72;4912998;29;20034;-84
2021/01/12 06:26:43;;;;;;;14.02;6.63;;;;;;;0.80;86.70;96785.22;4898133;29;20607;-83
2021/01/12 06:29:09;;;;;;;11.73;6.13;;;;;;;0.99;86.20;96770.91;4885029;29;20032;-83
2021/01/12 06:31:48;;;;;;;12.50;5.95;;;;;;;0.88;85.84;96770.47;4899903;29;20040;-82
2021/01/12 06:34:21;;;;;;;13.07;6.30;;;;;;;0.75;85.98;96755.03;4900205;29;20065;-81
2021/01/12 06:36:52;;;;;;;11.68;6.55;;;;;;;0.65;86.70;96759.72;4916727;29;20097;-81
2021/01/12 06:39:24;;;;;;;9.23;5.20;;;;;;;0.86;86.16;96756.28;4900540;29;20327;-81
2021/01/12 06:41:50;;;;;;;9.85;5.65;;;;;;;0.81;86.58;96763.75;4880520;29;20044;-81
2021/01/12 06:44:26;;;;;;;12.70;6.00;;;;;;;0.71;86.57;96758.97;4896458;29;20029;-82
2021/01/12 06:46:55;;;;;;;10.50;5.72;;;;;;;0.82;85.75;96743.03;4883678;29;20376;-81
2021/01/12 06:49:23;;;;;;;11.43;5.63;;;;;;;0.90;85.89;96742.88;4914781;29;20095;-82
2021/01/12 06:52:18;;;;;;;10.00;5.68;;;;;;;0.86;85.82;96751.94;4899113;29;20028;-81
2021/01/12 06:54:46;;;;;;;9.35;5.07;;;;;;;0.85;86.56;96747.00;4903322;29;20036;-81
2021/01/12 06:57:14;;;;;;;8.73;4.80;;;;;;;0.92;86.00;96751.16;4895841;29;20419;-80
2021/01/12 06:59:59;;;;;;;9.90;5.50;;;;;;;0.63;86.57;96742.00;4895165;29;20040;-80
2021/01/12 07:02:30;;;;;;;8.07;4.30;;;;;;;0.93;85.94;96734.00;4898590;29;20056;-80
2021/01/12 07:04:56;;;;;;;9.75;5.10;;;;;;;0.89;86.40;96756.69;4884823;29;20108;-80
2021/01/12 07:07:23;;;;;;;8.60;4.68;;;;;;;0.82;86.57;96749.94;4891206;29;20029;-80
2021/01/12 07:09:52;;;;;;;9.05;4.50;;;;;;;0.80;86.11;96727.06;4880378;29;20186;-80
2021/01/12 07:12:20;;;;;;;10.10;4.78;;;;;;;0.73;86.03;96750.09;4880228;29;20429;-79
2021/01/12 07:14:49;;;;;;;8.48;4.32;;;;;;;0.69;87.12;96719.94;4880820;29;20101;-79
2021/01/12 07:17:22;;;;;;;8.82;4.60;;;;;;;0.74;86.32;96723.50;4864585;29;20036;-80
2021/01/12 07:19:47;;;;;;;8.55;3.90;;;;;;;0.92;85.65;96727.28;4880062;29;20123;-79
2021/01/12 07:22:16;;;;;;;7.43;4.32;;;;;;;0.95;85.41;96734.59;4864626;29;20115;-80
2021/01/12 07:24:44;;;;;;;7.90;4.15;;;;;;;0.80;86.49;96732.19;4880847;29;20040;-80
2021/01/12 07:27:12;;;;;;;6.88;4.15;;;;;;;0.87;86.56;96730.44;4864748;29;20128;-80
2021/01/12 07:29:54;;;;;;;6.90;4.03;;;;;;;0.71;86.37;96718.00;4880067;29;20085;-78
2021/01/12 07:32:28;;;;;;;8.00;4.45;;;;;;;0.88;85.91;96718.44;4895705;29;20119;-80
2021/01/12 07:34:58;;;;;;;6.63;4.07;;;;;;;0.72;86.00;96719.53;4880910;29;20143;-79
2021/01/12 07:37:35;;;;;;;8.38;4.53;;;;;;;0.67;86.63;96707.34;4881285;29;20197;-80
2021/01/12 07:40:02;;;;;;;6.88;3.78;;;;;;;0.74;87.00;96707.34;4896724;29;20036;-80
2021/01/12 07:42:28;;;;;;;6.38;3.90;;;;;;;0.71;86.70;96702.63;4909126;29;20499;-78
2021/01/12 07:44:54;;;;;;;7.18;4.13;;;;;;;0.62;87.57;96709.69;4895591;29;20071;-80
2021/01/12 07:47:19;;;;;;;5.88;3.58;;;;;;;0.62;87.61;96696.06;4903244;29;20072;-81
2021/01/12 07:49:50;;;;;;;6.90;3.72;;;;;;;0.52;87.37;96694.66;4862901;29;20032;-80
2021/01/12 07:52:21;;;;;;;6.93;3.40;;;;;;;0.69;86.49;96700.25;4909638;29;20036;-81
2021/01/12 07:54:47;;;;;;;8.65;3.83;;;;;;;0.85;86.69;96704.22;4877795;29;20392;-81
2021/01/12 07:57:16;;;;;;;6.82;3.30;;;;;;;0.66;86.43;96685.25;4877229;29;20033;-81
2021/01/12 07:59:42;;;;;;;6.03;3.17;;;;;;;0.93;86.08;96701.47;4839754;29;20033;-81
2021/01/12 08:02:08;;;;;;;6.68;3.40;;;;;;;1.05;85.90;96708.59;4884658;29;20500;-81
2021/01/12 08:04:37;;;;;;;6.90;3.42;;;;;;;0.68;86.79;96700.44;4872524;29;20080;-78
2021/01/12 08:07:03;;;;;;;6.03;3.55;;;;;;;0.81;86.20;96687.66;4879049;29;20131;-81
2021/01/12 08:09:29;;;;;;;5.65;3.13;;;;;;;0.87;86.45;96702.25;4879611;29;20570;-81
2021/01/12 08:12:02;;;;;;;5.57;3.50;;;;;;;0.85;86.31;96701.66;4845404;29;20041;-80
2021/01/12 08:14:28;;;;;;;6.43;3.45;;;;;;;0.81;86.53;96687.66;4908812;29;20028;-81
2021/01/12 08:16:55;;;;;;;6.38;3.42;;;;;;;0.77;86.49;96675.41;4910723;29;20043;-79
2021/01/12 08:19:25;;;;;;;5.40;2.78;;;;;;;0.60;86.99;96687.78;4895148;29;20487;-80
2021/01/12 08:21:52;;;;;;;4.55;3.38;;;;;;;0.81;86.91;96699.69;4879294;29;20044;-79
2021/01/12 08:24:26;;;;;;;5.75;3.15;;;;;;;0.49;87.81;96684.78;4892809;29;20058;-79
2021/01/12 08:26:52;;;;;;;6.43;2.97;;;;;;;0.86;86.69;96680.19;4878474;29;20032;-79
2021/01/12 08:29:25;;;;;;;6.00;3.28;;;;;;;0.89;85.98;96684.09;4878785;29;20484;-79
2021/01/12 08:31:59;;;;;;;5.13;2.80;;;;;;;0.84;86.26;96691.59;4879433;29;20060;-79
2021/01/12 08:34:26;;;;;;;5.47;3.10;;;;;;;0.77;86.36;96670.28;4903616;29;20068;-77
2021/01/12 08:36:54;;;;;;;6.22;3.20;;;;;;;0.91;86.49;96690.63;4896795;29;20032;-78
2021/01/12 08:39:22;;;;;;;5.90;3.08;;;;;;;0.72;86.92;96681.91;4884553;29;20041;-78
2021/01/12 08:41:49;;;;;;;6.45;3.05;;;;;;;0.80;86.66;96686.06;4879355;29;20038;-78
2021/01/12 08:44:16;;;;;;;5.80;3.22;;;;;;;0.91;86.08;96682.94;4892292;29;20063;-79
2021/01/12 08:46:41;;;;;;;6.05;2.90;;;;;;;0.98;86.19;96689.84;4870982;29;20320;-78
2021/01/12 08:49:07;;;;;;;5.95;3.15;;;;;;;0.89;86.45;96690.03;4878034;29;20115;-78
2021/01/12 08:51:32;;;;;;;6.07;2.88;;;;;;;0.80;87.02;96688.63;4895121;29;20436;-79
2021/01/12 08:53:59;;;;;;;5.50;2.67;;;;;;;0.89;86.52;96682.34;4899482;29;20448;-79
2021/01/12 08:56:25;;;;;;;6.85;3.00;;;;;;;0.95;86.41;96688.47;4877819;29;20037;-79
2021/01/12 08:59:09;;;;;;;4.45;2.90;;;;;;;0.73;86.59;96680.91;4878048;29;20032;-81
2021/01/12 09:01:44;;;;;;;4.40;2.47;;;;;;;0.84;86.61;96686.47;4825657;29;20098;-81
2021/01/12 09:04:14;;;;;;;3.85;2.30;;;;;;;0.83;86.92;96667.75;4875443;29;20476;-80
2021/01/12 09:06:39;;;;;;;3.58;2.20;;;;;;;0.97;86.61;96683.16;4886084;29;20116;-80
2021/01/12 09:09:10;;;;;;;4.28;2.33;;;;;;;0.76;86.78;96674.63;4893626;29;20102;-81
2021/01/12 09:11:37;;;;;;;4.60;2.40;;;;;;;0.98;86.54;96677.03;4864911;29;20028;-83
2021/01/12 09:14:08;;;;;;;3.85;1.95;;;;;;;0.87;87.01;96680.97;4874809;29;20089;-81
2021/01/12 09:16:34;;;;;;;5.25;2.38;;;;;;;0.90;86.73;96675.44;4877769;29;20029;-82
2021/01/12 09:19:04;;;;;;;4.03;2.33;;;;;;;0.91;86.40;96682.16;4873323;29;20453;-84
2021/01/12 09:21:32;;;;;;;4.18;2.17;;;;;;;0.85;86.78;96683.72;4875575;29;20115;-82
2021/01/12 09:24:08;;;;;;;5.38;2.78;;;;;;;0.76;87.17;96672.06;4894743;29;20029;-82
2021/01/12 09:26:35;;;;;;;4.75;2.22;;;;;;;0.98;86.39;96682.97;4887596;29;20532;-82
2021/01/12 09:29:04;;;;;;;4.78;2.65;;;;;;;0.84;86.34;96665.97;4888675;29;20048;-83
2021/01/12 09:31:59;;;;;;;5.10;2.63;;;;;;;0.94;86.42;96681.75;4897208;29;20037;-83
2021/01/12 09:34:25;;;;;;;4.25;2.03;;;;;;;0.98;86.16;96672.72;4884105;29;20055;-82
2021/01/12 09:36:51;;;;;;;3.58;1.80;;;;;;;1.12;86.00;96676.06;4898712;29;20029;-84
2021/01/12 09:39:21;;;;;;;4.60;2.25;;;;;;;1.09;85.86;96679.78;4878319;29;20044;-83
2021/01/12 09:41:58;;;;;;;3.72;1.85;;;;;;;0.97;86.43;96681.38;4862121;29;20355;-84
2021/01/12 09:44:26;;;;;;;3.45;1.90;;;;;;;1.17;86.06;96685.75;4864762;29;20028;-84
2021/01/12 09:46:52;;;;;;;3.80;1.95;;;;;;;1.10;86.40;96675.47;4849201;29;20059;-82
2021/01/12 09:49:17;;;;;;;3.47;2.00;;;;;;;1.20;85.76;96688.69;4881521;29;20574;-81
2021/01/12 09:51:43;;;;;;;3.13;1.67;;;;;;;1.22;86.06;96679.03;4848545;29;20144;-82
2021/01/12 09:54:09;;;;;;;2.88;1.58;;;;;;;1.14;86.03;96663.84;4885087;29;20040;-80
2021/01/12 09:56:36;;;;;;;3.65;2.72;;;;;;;1.11;86.28;96670.16;4852634;29;20032;-81
2021/01/12 09:59:01;;;;;;;3.03;1.70;;;;;;;1.09;85.85;96661.06;4877948;29;20428;-80
2021/01/12 10:01:26;;;;;;;4.13;2.22;;;;;;;0.88;86.98;96675.63;4873684;29;20040;-80
2021/01/12 10:03:53;;;;;;;2.85;1.30;;;;;;;1.22;85.88;96668.78;4875623;29;20585;-80
2021/01/12 10:06:23;;;;;;;3.03;1.60;;;;;;;1.24;85.83;96664.22;4893328;29;20123;-80
2021/01/12 10:08:49;;;;;;;3.55;1.77;;;;;;;1.19;85.83;96676.84;4906019;29;20792;-80
2021/01/12 10:11:22;;;;;;;3.75;1.67;;;;;;;1.17;86.14;96678.84;4894981;29;20432;-80
2021/01/12 10:13:51;;;;;;;2.72;1.80;;;;;;;1.31;85.71;96672.72;4900393;29;20036;-81
2021/01/12 10:16:22;;;;;;;3.05;2.00;;;;;;;1.01;86.04;96666.38;4894585;29;20040;-82
2021/01/12 10:18:52;;;;;;;3.72;2.13;;;;;;;1.14;86.29;96666.41;4879563;29;20036;-81
2021/01/12 10:21:18;;;;;;;2.63;1.65;;;;;;;1.08;86.23;96656.91;4881603;29;20047;-80
2021/01/12 10:23:44;;;;;;;3.55;1.90;;;;;;;1.22;86.36;96666.22;4897696;29;20032;-80
2021/01/12 10:26:17;;;;;;;2.67;1.83;;;;;;;1.00;86.13;96660.47;4879746;29;20389;-80
2021/01/12 10:28:43;;;;;;;3.30;1.58;;;;;;;1.20;85.69;96672.50;4896596;29;20526;-81
2021/01/12 10:31:14;;;;;;;3.83;1.77;;;;;;;1.35;85.68;96667.97;4882855;29;20523;-83
2021/01/12 10:33:48;;;;;;;3.50;1.90;;;;;;;1.25;86.08;96667.56;4913023;29;20044;-80
2021/01/12 10:36:18;;;;;;;3.30;2.05;;;;;;;1.13;86.12;96654.56;4879697;29;20479;-83
2021/01/12 10:38:56;;;;;;;3.53;1.77;;;;;;;1.29;85.86;96663.66;4891284;29;20048;-81
2021/01/12 10:41:31;;;;;;;2.50;1.48;;;;;;;1.11;85.89;96651.41;4902267;29;20483;-81
2021/01/12 10:44:14;;;;;;;3.25;1.85;;;;;;;1.22;85.93;96652.59;4911711;29;20162;-82
2021/01/12 10:46:39;;;;;;;3.65;2.08;;;;;;;1.31;85.57;96675.28;4878712;29;20513;-82
2021/01/12 10:49:17;;;;;;;3.83;2.42;;;;;;;1.23;85.65;96665.22;4918840;29;20674;-82
2021/01/12 10:51:46;;;;;;;3.92;2.22;;;;;;;1.27;86.13;96648.47;4910615;29;20142;-82
2021/01/12 10:54:12;;;;;;;3.92;2.28;;;;;;;1.20;86.02;96642.53;4901519;29;20498;-81
2021/01/12 10:56:38;;;;;;;4.07;2.35;;;;;;;1.22;85.55;96645.69;4878006;29;20024;-81
2021/01/12 10:59:06;;;;;;;3.25;2.20;;;;;;;1.09;86.07;96636.22;4884869;29;20082;-83
2021/01/12 11:01:36;;;;;;;4.28;2.17;;;;;;;1.16;86.28;96633.66;4877748;29;20412;-83
2021/01/12 11:04:19;;;;;;;3.28;2.20;;;;;;;1.19;85.97;96625.56;4889664;29;20075;-83
2021/01/12 11:06:53;;;;;;;4.32;2.22;;;;;;;1.11;86.15;96626.56;4877630;29;20461;-83
2021/01/12 11:09:20;;;;;;;4.22;2.65;;;;;;;1.11;85.90;96625.75;4893965;29;20069;-82
2021/01/12 11:12:10;;;;;;;3.83;2.22;;;;;;;1.30;85.33;96634.44;4884635;29;20048;-85
2021/01/12 11:14:39;;;;;;;4.53;2.30;;;;;;;1.29;84.99;96613.13;4864799;29;20044;-82
2021/01/12 11:17:13;;;;;;;3.58;2.25;;;;;;;1.50;85.02;96631.84;4899998;29;20069;-82
2021/01/12 11:19:40;;;;;;;3.55;2.33;;;;;;;1.04;86.71;96604.47;4889280;29;20079;-82
2021/01/12 11:22:13;;;;;;;3.45;2.20;;;;;;;1.27;85.99;96614.34;4893235;29;20044;-85
2021/01/12 11:24:41;;;;;;;4.05;2.00;;;;;;;1.42;85.38;96614.91;4909897;29;20075;-81
2021/01/12 11:27:08;;;;;;;3.30;2.33;;;;;;;1.22;86.00;96609.03;4881806;29;20455;-85
2021/01/12 11:29:34;;;;;;;4.25;2.30;;;;;;;1.43;85.40;96590.03;4880482;29;20125;-84
2021/01/12 11:32:00;;;;;;;3.60;1.90;;;;;;;1.29;85.35;96594.41;4853615;29;20353;-84
2021/01/12 11:34:26;;;;;;;4.15;2.40;;;;;;;1.08;86.59;96608.22;4878944;29;20040;-84
2021/01/12 11:36:52;;;;;;;3.30;2.08;;;;;;;1.20;85.82;96606.66;4897786;29;20024;-84
2021/01/12 11:39:48;;;;;;;3.25;1.95;;;;;;;1.01;86.18;96586.91;4880608;29;20041;-85
2021/01/12 11:42:15;;;;;;;3.22;1.77;;;;;;;1.09;86.36;96602.09;4880261;29;20116;-85